sensor_id;sensor_type;location;lat;lon;timestamp;temperature;humidity
49032;DHT22;63443;48.366;10.876;2022-12-05T00:00:46;1.00;99.90
49032;DHT22;63443;48.366;10.876;2022-12-05T00:03:11;1.00;99.90
49032;DHT22;63443;48.366;10.876;2022-12-05T00:05:40;1.00;99.90
49032;DHT22;63443;48.366;10.876;2022-12-05T00:08:05;0.90;99.90
49032;DHT22;63443;48.366;10.876;2022-12-05T00:10:31;0.90;99.90
49032;DHT22;63443;48.366;10.876;2022-12-05T00:12:57;1.00;99.90
49032;DHT22;63443;48.366;10.876;2022-12-05T00:15:22;1.00;99.90
49032;DHT22;63443;48.366;10.876;2022-12-05T00:17:48;0.90;99.90
49032;DHT22;63443;48.366;10.876;2022-12-05T00:20:14;0.80;99.90
49032;DHT22;63443;48.366;10.876;2022-12-05T00:22:40;0.90;99.90
49032;DHT22;63443;48.366;10.876;2022-12-05T00:25:06;0.90;99.90
49032;DHT22;63443;48.366;10.876;2022-12-05T00:27:32;0.90;99.90
49032;DHT22;63443;48.366;10.876;2022-12-05T00:29:58;0.80;99.90
49032;DHT22;63443;48.366;10.876;2022-12-05T00:32:24;0.90;99.90
49032;DHT22;63443;48.366;10.876;2022-12-05T00:34:50;0.90;99.90
49032;DHT22;63443;48.366;10.876;2022-12-05T00:37:15;0.80;99.90
49032;DHT22;63443;48.366;10.876;2022-12-05T00:39:41;0.90;99.90
49032;DHT22;63443;48.366;10.876;2022-12-05T00:42:06;0.80;99.90
49032;DHT22;63443;48.366;10.876;2022-12-05T00:44:32;0.90;99.90
49032;DHT22;63443;48.366;10.876;2022-12-05T00:46:58;0.80;99.90
49032;DHT22;63443;48.366;10.876;2022-12-05T00:49:23;0.80;99.90
49032;DHT22;63443;48.366;10.876;2022-12-05T00:51:49;0.80;99.90
49032;DHT22;63443;48.366;10.876;2022-12-05T00:54:15;0.80;99.90
49032;DHT22;63443;48.366;10.876;2022-12-05T00:56:42;0.70;99.90
49032;DHT22;63443;48.366;10.876;2022-12-05T00:59:13;0.70;99.90
49032;DHT22;63443;48.366;10.876;2022-12-05T01:01:40;0.80;99.90
49032;DHT22;63443;48.366;10.876;2022-12-05T01:04:11;0.80;99.90
49032;DHT22;63443;48.366;10.876;2022-12-05T01:06:38;0.80;99.90
49032;DHT22;63443;48.366;10.876;2022-12-05T01:09:04;0.80;99.90
49032;DHT22;63443;48.366;10.876;2022-12-05T01:11:30;0.80;99.90
49032;DHT22;63443;48.366;10.876;2022-12-05T01:13:56;0.80;99.90
49032;DHT22;63443;48.366;10.876;2022-12-05T01:16:28;0.90;99.90
49032;DHT22;63443;48.366;10.876;2022-12-05T01:18:55;0.90;99.90
49032;DHT22;63443;48.366;10.876;2022-12-05T01:21:21;0.80;99.90
49032;DHT22;63443;48.366;10.876;2022-12-05T01:23:47;0.90;99.90
49032;DHT22;63443;48.366;10.876;2022-12-05T01:26:15;0.90;99.90
49032;DHT22;63443;48.366;10.876;2022-12-05T01:28:40;0.90;99.90
49032;DHT22;63443;48.366;10.876;2022-12-05T01:31:16;0.80;99.90
49032;DHT22;63443;48.366;10.876;2022-12-05T01:33:42;0.80;99.90
49032;DHT22;63443;48.366;10.876;2022-12-05T01:36:10;0.80;99.90
49032;DHT22;63443;48.366;10.876;2022-12-05T01:38:38;0.80;99.90
49032;DHT22;63443;48.366;10.876;2022-12-05T01:41:06;0.80;99.90
49032;DHT22;63443;48.366;10.876;2022-12-05T01:43:31;0.80;99.90
49032;DHT22;63443;48.366;10.876;2022-12-05T01:45:57;0.80;99.90
49032;DHT22;63443;48.366;10.876;2022-12-05T01:48:27;0.80;99.90
49032;DHT22;63443;48.366;10.876;2022-12-05T01:50:55;0.80;99.90
49032;DHT22;63443;48.366;10.876;2022-12-05T01:53:22;0.90;99.90
49032;DHT22;63443;48.366;10.876;2022-12-05T01:55:49;0.90;99.90
49032;DHT22;63443;48.366;10.876;2022-12-05T01:58:15;0.90;99.90
49032;DHT22;63443;48.366;10.876;2022-12-05T02:00:42;0.80;99.90
49032;DHT22;63443;48.366;10.876;2022-12-05T02:03:11;0.80;99.90
49032;DHT22;63443;48.366;10.876;2022-12-05T02:05:38;0.90;99.90
49032;DHT22;63443;48.366;10.876;2022-12-05T02:08:09;0.90;99.90
49032;DHT22;63443;48.366;10.876;2022-12-05T02:10:39;0.90;99.90
49032;DHT22;63443;48.366;10.876;2022-12-05T02:30:15;0.60;99.90
49032;DHT22;63443;48.366;10.876;2022-12-05T02:33:31;0.70;99.90
49032;DHT22;63443;48.366;10.876;2022-12-05T02:39:03;0.60;99.90
49032;DHT22;63443;48.366;10.876;2022-12-05T02:41:40;0.70;99.90
49032;DHT22;63443;48.366;10.876;2022-12-05T02:44:23;0.60;99.90
49032;DHT22;63443;48.366;10.876;2022-12-05T02:46:51;0.70;99.90
49032;DHT22;63443;48.366;10.876;2022-12-05T02:49:24;0.70;99.90
49032;DHT22;63443;48.366;10.876;2022-12-05T02:51:55;0.70;99.90
49032;DHT22;63443;48.366;10.876;2022-12-05T02:54:48;0.60;99.90
49032;DHT22;63443;48.366;10.876;2022-12-05T02:57:16;0.60;99.90
49032;DHT22;63443;48.366;10.876;2022-12-05T02:59:42;0.60;99.90
49032;DHT22;63443;48.366;10.876;2022-12-05T03:02:08;0.70;99.90
49032;DHT22;63443;48.366;10.876;2022-12-05T03:04:34;0.60;99.90
49032;DHT22;63443;48.366;10.876;2022-12-05T03:07:05;0.70;99.90
49032;DHT22;63443;48.366;10.876;2022-12-05T03:09:38;0.70;99.90
49032;DHT22;63443;48.366;10.876;2022-12-05T03:12:08;0.70;99.90
49032;DHT22;63443;48.366;10.876;2022-12-05T03:15:13;0.70;99.90
49032;DHT22;63443;48.366;10.876;2022-12-05T03:17:39;0.70;99.90
49032;DHT22;63443;48.366;10.876;2022-12-05T03:20:12;0.70;99.90
49032;DHT22;63443;48.366;10.876;2022-12-05T03:22:51;0.70;99.90
49032;DHT22;63443;48.366;10.876;2022-12-05T03:25:22;0.70;99.90
49032;DHT22;63443;48.366;10.876;2022-12-05T03:28:18;0.70;99.90
49032;DHT22;63443;48.366;10.876;2022-12-05T03:30:47;0.80;99.90
49032;DHT22;63443;48.366;10.876;2022-12-05T03:33:28;0.80;99.90
49032;DHT22;63443;48.366;10.876;2022-12-05T03:38:34;0.80;99.90
49032;DHT22;63443;48.366;10.876;2022-12-05T03:41:28;0.70;99.90
49032;DHT22;63443;48.366;10.876;2022-12-05T03:44:19;0.80;99.90
49032;DHT22;63443;48.366;10.876;2022-12-05T03:47:10;0.80;99.90
49032;DHT22;63443;48.366;10.876;2022-12-05T03:50:05;0.80;99.90
49032;DHT22;63443;48.366;10.876;2022-12-05T03:52:38;0.80;99.90
49032;DHT22;63443;48.366;10.876;2022-12-05T03:55:08;0.90;99.90
49032;DHT22;63443;48.366;10.876;2022-12-05T03:57:45;0.90;99.90
49032;DHT22;63443;48.366;10.876;2022-12-05T04:00:18;0.90;99.90
49032;DHT22;63443;48.366;10.876;2022-12-05T04:03:19;1.00;99.90
49032;DHT22;63443;48.366;10.876;2022-12-05T04:05:55;1.10;99.90
49032;DHT22;63443;48.366;10.876;2022-12-05T04:08:36;1.10;99.90
49032;DHT22;63443;48.366;10.876;2022-12-05T04:11:11;1.20;99.90
49032;DHT22;63443;48.366;10.876;2022-12-05T04:13:43;1.30;99.90
49032;DHT22;63443;48.366;10.876;2022-12-05T04:16:22;1.30;99.90
49032;DHT22;63443;48.366;10.876;2022-12-05T04:19:18;1.30;99.90
49032;DHT22;63443;48.366;10.876;2022-12-05T04:21:50;1.30;99.90
49032;DHT22;63443;48.366;10.876;2022-12-05T04:24:23;1.20;99.90
49032;DHT22;63443;48.366;10.876;2022-12-05T04:30:10;1.30;99.90
49032;DHT22;63443;48.366;10.876;2022-12-05T04:32:58;1.30;99.90
49032;DHT22;63443;48.366;10.876;2022-12-05T04:35:33;1.30;99.90
49032;DHT22;63443;48.366;10.876;2022-12-05T04:38:22;1.40;99.90
49032;DHT22;63443;48.366;10.876;2022-12-05T04:41:03;1.50;99.90
49032;DHT22;63443;48.366;10.876;2022-12-05T04:43:34;1.50;99.90
49032;DHT22;63443;48.366;10.876;2022-12-05T04:46:03;1.60;99.90
49032;DHT22;63443;48.366;10.876;2022-12-05T04:48:31;1.50;99.90
49032;DHT22;63443;48.366;10.876;2022-12-05T04:51:00;1.60;99.90
49032;DHT22;63443;48.366;10.876;2022-12-05T04:53:29;1.70;99.90
49032;DHT22;63443;48.366;10.876;2022-12-05T04:55:58;1.60;99.90
49032;DHT22;63443;48.366;10.876;2022-12-05T04:58:25;1.60;99.90
49032;DHT22;63443;48.366;10.876;2022-12-05T05:01:18;1.60;99.90
49032;DHT22;63443;48.366;10.876;2022-12-05T05:03:50;1.60;99.90
49032;DHT22;63443;48.366;10.876;2022-12-05T05:06:17;1.70;99.90
49032;DHT22;63443;48.366;10.876;2022-12-05T05:08:52;1.70;99.90
49032;DHT22;63443;48.366;10.876;2022-12-05T05:11:24;1.70;99.90
49032;DHT22;63443;48.366;10.876;2022-12-05T05:13:51;1.80;99.90
49032;DHT22;63443;48.366;10.876;2022-12-05T05:16:22;1.80;99.90
49032;DHT22;63443;48.366;10.876;2022-12-05T05:18:49;1.80;99.90
49032;DHT22;63443;48.366;10.876;2022-12-05T05:21:18;1.80;99.90
49032;DHT22;63443;48.366;10.876;2022-12-05T05:23:44;1.90;99.90
49032;DHT22;63443;48.366;10.876;2022-12-05T05:26:10;1.90;99.90
49032;DHT22;63443;48.366;10.876;2022-12-05T05:28:35;1.90;99.90
49032;DHT22;63443;48.366;10.876;2022-12-05T05:31:03;1.80;99.90
49032;DHT22;63443;48.366;10.876;2022-12-05T05:33:28;1.80;99.90
49032;DHT22;63443;48.366;10.876;2022-12-05T05:35:54;1.90;99.90
49032;DHT22;63443;48.366;10.876;2022-12-05T05:38:20;1.80;99.90
49032;DHT22;63443;48.366;10.876;2022-12-05T05:40:45;1.80;99.90
49032;DHT22;63443;48.366;10.876;2022-12-05T05:43:11;1.90;99.90
49032;DHT22;63443;48.366;10.876;2022-12-05T05:45:36;2.00;99.90
49032;DHT22;63443;48.366;10.876;2022-12-05T05:48:02;2.00;99.90
49032;DHT22;63443;48.366;10.876;2022-12-05T05:50:28;1.90;99.90
49032;DHT22;63443;48.366;10.876;2022-12-05T05:52:53;1.80;99.90
49032;DHT22;63443;48.366;10.876;2022-12-05T05:55:19;1.90;99.90
49032;DHT22;63443;48.366;10.876;2022-12-05T05:57:45;1.90;99.90
49032;DHT22;63443;48.366;10.876;2022-12-05T06:00:11;2.00;99.90
49032;DHT22;63443;48.366;10.876;2022-12-05T06:02:37;2.00;99.90
49032;DHT22;63443;48.366;10.876;2022-12-05T06:05:03;2.00;99.90
49032;DHT22;63443;48.366;10.876;2022-12-05T06:07:29;2.10;99.90
49032;DHT22;63443;48.366;10.876;2022-12-05T06:09:55;2.10;99.90
49032;DHT22;63443;48.366;10.876;2022-12-05T06:12:20;2.00;99.90
49032;DHT22;63443;48.366;10.876;2022-12-05T06:14:47;2.10;99.90
49032;DHT22;63443;48.366;10.876;2022-12-05T06:17:13;2.10;99.90
49032;DHT22;63443;48.366;10.876;2022-12-05T06:19:39;2.10;99.90
49032;DHT22;63443;48.366;10.876;2022-12-05T06:22:04;2.00;99.90
49032;DHT22;63443;48.366;10.876;2022-12-05T06:24:30;2.10;99.90
49032;DHT22;63443;48.366;10.876;2022-12-05T06:26:56;2.10;99.90
49032;DHT22;63443;48.366;10.876;2022-12-05T06:29:21;2.20;99.90
49032;DHT22;63443;48.366;10.876;2022-12-05T06:31:47;2.10;99.90
49032;DHT22;63443;48.366;10.876;2022-12-05T06:34:12;2.20;99.90
49032;DHT22;63443;48.366;10.876;2022-12-05T06:36:38;2.20;99.90
49032;DHT22;63443;48.366;10.876;2022-12-05T06:39:04;2.30;99.90
49032;DHT22;63443;48.366;10.876;2022-12-05T06:41:29;2.30;99.90
49032;DHT22;63443;48.366;10.876;2022-12-05T06:43:57;2.40;99.90
49032;DHT22;63443;48.366;10.876;2022-12-05T06:46:24;2.50;99.90
49032;DHT22;63443;48.366;10.876;2022-12-05T06:48:56;2.60;99.90
49032;DHT22;63443;48.366;10.876;2022-12-05T06:51:22;2.60;99.90
49032;DHT22;63443;48.366;10.876;2022-12-05T06:53:48;2.60;99.90
49032;DHT22;63443;48.366;10.876;2022-12-05T06:56:16;2.60;99.90
49032;DHT22;63443;48.366;10.876;2022-12-05T06:58:47;2.60;99.90
49032;DHT22;63443;48.366;10.876;2022-12-05T07:01:15;2.70;99.90
49032;DHT22;63443;48.366;10.876;2022-12-05T07:04:00;2.70;99.90
49032;DHT22;63443;48.366;10.876;2022-12-05T07:06:26;2.60;99.90
49032;DHT22;63443;48.366;10.876;2022-12-05T07:08:52;2.50;99.90
49032;DHT22;63443;48.366;10.876;2022-12-05T07:11:18;2.50;99.90
49032;DHT22;63443;48.366;10.876;2022-12-05T07:13:44;2.40;99.90
49032;DHT22;63443;48.366;10.876;2022-12-05T07:16:09;2.40;99.90
49032;DHT22;63443;48.366;10.876;2022-12-05T07:18:35;2.40;99.90
49032;DHT22;63443;48.366;10.876;2022-12-05T07:21:04;2.40;99.90
49032;DHT22;63443;48.366;10.876;2022-12-05T07:23:30;2.30;99.90
49032;DHT22;63443;48.366;10.876;2022-12-05T07:25:56;2.40;99.90
49032;DHT22;63443;48.366;10.876;2022-12-05T07:28:24;2.40;99.90
49032;DHT22;63443;48.366;10.876;2022-12-05T07:31:05;2.50;99.90
49032;DHT22;63443;48.366;10.876;2022-12-05T07:33:31;2.50;99.90
49032;DHT22;63443;48.366;10.876;2022-12-05T07:36:09;2.50;99.90
49032;DHT22;63443;48.366;10.876;2022-12-05T07:38:35;2.60;99.90
49032;DHT22;63443;48.366;10.876;2022-12-05T07:41:21;2.60;99.90
49032;DHT22;63443;48.366;10.876;2022-12-05T07:43:50;2.60;99.90
49032;DHT22;63443;48.366;10.876;2022-12-05T07:46:15;2.60;99.90
49032;DHT22;63443;48.366;10.876;2022-12-05T07:48:41;2.60;99.90
49032;DHT22;63443;48.366;10.876;2022-12-05T07:51:08;2.50;99.90
49032;DHT22;63443;48.366;10.876;2022-12-05T07:53:34;2.50;99.90
49032;DHT22;63443;48.366;10.876;2022-12-05T07:56:03;2.60;99.90
49032;DHT22;63443;48.366;10.876;2022-12-05T07:58:29;2.70;99.90
49032;DHT22;63443;48.366;10.876;2022-12-05T08:00:55;2.80;99.90
49032;DHT22;63443;48.366;10.876;2022-12-05T08:03:21;2.90;99.90
49032;DHT22;63443;48.366;10.876;2022-12-05T08:05:46;3.00;99.90
49032;DHT22;63443;48.366;10.876;2022-12-05T08:08:12;3.00;99.90
49032;DHT22;63443;48.366;10.876;2022-12-05T08:10:38;3.00;99.90
49032;DHT22;63443;48.366;10.876;2022-12-05T08:13:04;2.90;99.90
49032;DHT22;63443;48.366;10.876;2022-12-05T08:15:29;3.00;99.90
49032;DHT22;63443;48.366;10.876;2022-12-05T08:17:55;3.10;99.90
49032;DHT22;63443;48.366;10.876;2022-12-05T08:20:20;3.10;99.90
49032;DHT22;63443;48.366;10.876;2022-12-05T08:22:46;3.20;99.90
49032;DHT22;63443;48.366;10.876;2022-12-05T08:25:11;3.20;99.90
49032;DHT22;63443;48.366;10.876;2022-12-05T08:27:37;3.40;99.90
49032;DHT22;63443;48.366;10.876;2022-12-05T08:30:03;3.50;99.90
49032;DHT22;63443;48.366;10.876;2022-12-05T08:32:29;3.50;99.90
49032;DHT22;63443;48.366;10.876;2022-12-05T08:34:54;3.60;99.90
49032;DHT22;63443;48.366;10.876;2022-12-05T08:37:20;3.60;99.90
49032;DHT22;63443;48.366;10.876;2022-12-05T08:39:46;3.70;99.90
49032;DHT22;63443;48.366;10.876;2022-12-05T08:42:12;3.70;99.90
49032;DHT22;63443;48.366;10.876;2022-12-05T08:44:37;3.80;99.90
49032;DHT22;63443;48.366;10.876;2022-12-05T08:47:03;3.90;99.90
49032;DHT22;63443;48.366;10.876;2022-12-05T08:49:28;3.90;99.90
49032;DHT22;63443;48.366;10.876;2022-12-05T08:51:54;3.90;99.90
49032;DHT22;63443;48.366;10.876;2022-12-05T08:54:20;4.00;99.90
49032;DHT22;63443;48.366;10.876;2022-12-05T08:56:45;4.00;99.90
49032;DHT22;63443;48.366;10.876;2022-12-05T08:59:11;4.00;99.90
49032;DHT22;63443;48.366;10.876;2022-12-05T09:01:36;4.00;99.90
49032;DHT22;63443;48.366;10.876;2022-12-05T09:04:04;3.90;99.90
49032;DHT22;63443;48.366;10.876;2022-12-05T09:06:31;4.00;99.90
49032;DHT22;63443;48.366;10.876;2022-12-05T09:08:59;4.00;99.90
49032;DHT22;63443;48.366;10.876;2022-12-05T09:11:30;4.00;99.90
49032;DHT22;63443;48.366;10.876;2022-12-05T09:13:58;4.10;99.90
49032;DHT22;63443;48.366;10.876;2022-12-05T09:16:26;4.10;99.90
49032;DHT22;63443;48.366;10.876;2022-12-05T09:18:54;4.10;99.90
49032;DHT22;63443;48.366;10.876;2022-12-05T09:21:22;4.10;99.90
49032;DHT22;63443;48.366;10.876;2022-12-05T09:23:48;4.20;99.90
49032;DHT22;63443;48.366;10.876;2022-12-05T09:26:18;4.20;99.90
49032;DHT22;63443;48.366;10.876;2022-12-05T09:28:44;4.20;99.90
49032;DHT22;63443;48.366;10.876;2022-12-05T09:31:12;4.10;99.90
49032;DHT22;63443;48.366;10.876;2022-12-05T09:33:38;4.00;99.90
49032;DHT22;63443;48.366;10.876;2022-12-05T09:36:06;4.00;99.90
49032;DHT22;63443;48.366;10.876;2022-12-05T09:38:32;4.10;99.90
49032;DHT22;63443;48.366;10.876;2022-12-05T09:41:33;3.90;99.90
49032;DHT22;63443;48.366;10.876;2022-12-05T09:49:56;3.90;99.90
49032;DHT22;63443;48.366;10.876;2022-12-05T09:52:26;4.00;99.90
49032;DHT22;63443;48.366;10.876;2022-12-05T09:54:52;4.00;99.90
49032;DHT22;63443;48.366;10.876;2022-12-05T09:57:31;4.00;99.90
49032;DHT22;63443;48.366;10.876;2022-12-05T09:59:59;4.00;99.90
49032;DHT22;63443;48.366;10.876;2022-12-05T10:02:35;4.00;99.90
49032;DHT22;63443;48.366;10.876;2022-12-05T10:05:15;4.00;99.90
49032;DHT22;63443;48.366;10.876;2022-12-05T10:08:11;4.00;99.90
49032;DHT22;63443;48.366;10.876;2022-12-05T10:11:04;4.00;99.90
49032;DHT22;63443;48.366;10.876;2022-12-05T10:16:05;4.20;99.90
49032;DHT22;63443;48.366;10.876;2022-12-05T10:18:47;4.20;99.90
49032;DHT22;63443;48.366;10.876;2022-12-05T10:21:46;4.40;99.90
49032;DHT22;63443;48.366;10.876;2022-12-05T10:24:21;4.50;99.90
49032;DHT22;63443;48.366;10.876;2022-12-05T10:26:52;4.80;99.90
49032;DHT22;63443;48.366;10.876;2022-12-05T10:32:17;5.00;99.90
49032;DHT22;63443;48.366;10.876;2022-12-05T10:34:44;4.90;99.90
49032;DHT22;63443;48.366;10.876;2022-12-05T10:37:16;4.70;99.90
49032;DHT22;63443;48.366;10.876;2022-12-05T10:39:43;4.70;99.90
49032;DHT22;63443;48.366;10.876;2022-12-05T10:42:15;4.60;99.90
49032;DHT22;63443;48.366;10.876;2022-12-05T10:44:42;4.80;99.90
49032;DHT22;63443;48.366;10.876;2022-12-05T10:47:10;4.90;99.90
49032;DHT22;63443;48.366;10.876;2022-12-05T10:49:37;5.00;99.90
49032;DHT22;63443;48.366;10.876;2022-12-05T10:52:03;5.10;99.90
49032;DHT22;63443;48.366;10.876;2022-12-05T10:54:30;5.00;99.90
49032;DHT22;63443;48.366;10.876;2022-12-05T10:56:57;5.20;99.90
49032;DHT22;63443;48.366;10.876;2022-12-05T10:59:43;5.20;99.90
49032;DHT22;63443;48.366;10.876;2022-12-05T11:02:22;5.30;99.90
49032;DHT22;63443;48.366;10.876;2022-12-05T11:04:49;5.40;99.90
49032;DHT22;63443;48.366;10.876;2022-12-05T11:07:34;5.30;99.90
49032;DHT22;63443;48.366;10.876;2022-12-05T11:10:02;5.20;99.90
49032;DHT22;63443;48.366;10.876;2022-12-05T11:12:37;5.30;99.90
49032;DHT22;63443;48.366;10.876;2022-12-05T11:17:35;5.20;99.90
49032;DHT22;63443;48.366;10.876;2022-12-05T11:20:02;4.90;99.90
49032;DHT22;63443;48.366;10.876;2022-12-05T11:22:34;4.90;99.90
49032;DHT22;63443;48.366;10.876;2022-12-05T11:25:00;4.90;99.90
49032;DHT22;63443;48.366;10.876;2022-12-05T11:27:46;4.90;99.90
49032;DHT22;63443;48.366;10.876;2022-12-05T11:32:37;4.80;99.90
49032;DHT22;63443;48.366;10.876;2022-12-05T11:35:23;4.90;99.90
49032;DHT22;63443;48.366;10.876;2022-12-05T11:37:58;4.90;99.90
49032;DHT22;63443;48.366;10.876;2022-12-05T11:40:35;4.90;99.90
49032;DHT22;63443;48.366;10.876;2022-12-05T11:51:12;5.00;99.90
49032;DHT22;63443;48.366;10.876;2022-12-05T11:54:17;5.10;99.90
49032;DHT22;63443;48.366;10.876;2022-12-05T11:56:53;5.20;99.90
49032;DHT22;63443;48.366;10.876;2022-12-05T12:20:26;4.80;99.90
49032;DHT22;63443;48.366;10.876;2022-12-05T12:28:44;4.70;99.90
49032;DHT22;63443;48.366;10.876;2022-12-05T12:36:54;4.80;99.90
49032;DHT22;63443;48.366;10.876;2022-12-05T12:39:36;4.80;99.90
49032;DHT22;63443;48.366;10.876;2022-12-05T12:42:20;4.80;99.90
49032;DHT22;63443;48.366;10.876;2022-12-05T12:48:03;4.70;99.90
49032;DHT22;63443;48.366;10.876;2022-12-05T12:50:34;4.70;99.90
49032;DHT22;63443;48.366;10.876;2022-12-05T12:59:46;4.60;99.90
49032;DHT22;63443;48.366;10.876;2022-12-05T13:02:20;4.50;99.90
49032;DHT22;63443;48.366;10.876;2022-12-05T13:04:53;4.50;99.90
49032;DHT22;63443;48.366;10.876;2022-12-05T13:07:31;4.50;99.90
49032;DHT22;63443;48.366;10.876;2022-12-05T13:10:16;4.40;99.90
49032;DHT22;63443;48.366;10.876;2022-12-05T13:12:44;4.30;99.90
49032;DHT22;63443;48.366;10.876;2022-12-05T13:15:14;4.20;99.90
49032;DHT22;63443;48.366;10.876;2022-12-05T13:17:43;4.10;99.90
49032;DHT22;63443;48.366;10.876;2022-12-05T13:20:18;4.10;99.90
49032;DHT22;63443;48.366;10.876;2022-12-05T13:22:45;4.10;99.90
49032;DHT22;63443;48.366;10.876;2022-12-05T13:25:14;4.00;99.90
49032;DHT22;63443;48.366;10.876;2022-12-05T13:27:59;4.10;99.90
49032;DHT22;63443;48.366;10.876;2022-12-05T13:30:25;4.10;99.90
49032;DHT22;63443;48.366;10.876;2022-12-05T13:32:57;4.30;99.90
49032;DHT22;63443;48.366;10.876;2022-12-05T13:35:34;4.30;99.90
49032;DHT22;63443;48.366;10.876;2022-12-05T13:38:31;4.20;99.90
49032;DHT22;63443;48.366;10.876;2022-12-05T13:41:17;4.20;99.90
49032;DHT22;63443;48.366;10.876;2022-12-05T13:44:02;4.20;99.90
49032;DHT22;63443;48.366;10.876;2022-12-05T13:46:39;4.20;99.90
49032;DHT22;63443;48.366;10.876;2022-12-05T13:49:28;4.10;99.90
49032;DHT22;63443;48.366;10.876;2022-12-05T13:52:05;4.10;99.90
49032;DHT22;63443;48.366;10.876;2022-12-05T13:54:32;4.10;99.90
49032;DHT22;63443;48.366;10.876;2022-12-05T13:57:01;4.10;99.90
49032;DHT22;63443;48.366;10.876;2022-12-05T14:07:43;3.80;99.90
49032;DHT22;63443;48.366;10.876;2022-12-05T14:13:37;3.70;99.90
49032;DHT22;63443;48.366;10.876;2022-12-05T14:15:52;3.70;99.90
49032;DHT22;63443;48.366;10.876;2022-12-05T14:24:31;3.80;99.90
49032;DHT22;63443;48.366;10.876;2022-12-05T14:30:18;3.90;99.90
49032;DHT22;63443;48.366;10.876;2022-12-05T14:32:46;3.90;99.90
49032;DHT22;63443;48.366;10.876;2022-12-05T14:35:17;3.90;99.90
49032;DHT22;63443;48.366;10.876;2022-12-05T14:37:52;3.90;99.90
49032;DHT22;63443;48.366;10.876;2022-12-05T14:45:40;3.80;99.90
49032;DHT22;63443;48.366;10.876;2022-12-05T14:53:36;3.90;99.90
49032;DHT22;63443;48.366;10.876;2022-12-05T14:56:20;3.90;99.90
49032;DHT22;63443;48.366;10.876;2022-12-05T15:01:39;3.90;99.90
49032;DHT22;63443;48.366;10.876;2022-12-05T15:07:09;4.00;99.90
49032;DHT22;63443;48.366;10.876;2022-12-05T15:12:20;3.90;99.90
49032;DHT22;63443;48.366;10.876;2022-12-05T15:14:52;4.00;99.90
49032;DHT22;63443;48.366;10.876;2022-12-05T15:17:24;4.00;99.90
49032;DHT22;63443;48.366;10.876;2022-12-05T15:19:59;3.90;99.90
49032;DHT22;63443;48.366;10.876;2022-12-05T15:22:31;3.90;99.90
49032;DHT22;63443;48.366;10.876;2022-12-05T15:25:22;3.90;99.90
49032;DHT22;63443;48.366;10.876;2022-12-05T15:28:00;3.90;99.90
49032;DHT22;63443;48.366;10.876;2022-12-05T15:30:28;3.90;99.90
49032;DHT22;63443;48.366;10.876;2022-12-05T15:32:54;3.80;99.90
49032;DHT22;63443;48.366;10.876;2022-12-05T15:35:22;3.80;99.90
49032;DHT22;63443;48.366;10.876;2022-12-05T15:38:02;3.70;99.90
49032;DHT22;63443;48.366;10.876;2022-12-05T15:40:35;3.70;99.90
49032;DHT22;63443;48.366;10.876;2022-12-05T15:43:29;3.70;99.90
49032;DHT22;63443;48.366;10.876;2022-12-05T15:46:25;3.70;99.90
49032;DHT22;63443;48.366;10.876;2022-12-05T15:48:56;3.70;99.90
49032;DHT22;63443;48.366;10.876;2022-12-05T15:51:35;3.70;99.90
49032;DHT22;63443;48.366;10.876;2022-12-05T15:54:12;3.60;99.90
49032;DHT22;63443;48.366;10.876;2022-12-05T15:56:47;3.60;99.90
49032;DHT22;63443;48.366;10.876;2022-12-05T15:59:18;3.80;99.90
49032;DHT22;63443;48.366;10.876;2022-12-05T16:01:53;3.90;99.90
49032;DHT22;63443;48.366;10.876;2022-12-05T16:04:30;3.80;99.90
49032;DHT22;63443;48.366;10.876;2022-12-05T16:07:02;3.80;99.90
49032;DHT22;63443;48.366;10.876;2022-12-05T16:09:31;3.90;99.90
49032;DHT22;63443;48.366;10.876;2022-12-05T16:12:03;3.90;99.90
49032;DHT22;63443;48.366;10.876;2022-12-05T16:14:39;4.00;99.90
49032;DHT22;63443;48.366;10.876;2022-12-05T16:17:07;3.90;99.90
49032;DHT22;63443;48.366;10.876;2022-12-05T16:19:38;3.90;99.90
49032;DHT22;63443;48.366;10.876;2022-12-05T16:22:08;3.90;99.90
49032;DHT22;63443;48.366;10.876;2022-12-05T16:24:55;4.00;99.90
49032;DHT22;63443;48.366;10.876;2022-12-05T16:27:25;4.00;99.90
49032;DHT22;63443;48.366;10.876;2022-12-05T16:32:35;4.00;99.90
49032;DHT22;63443;48.366;10.876;2022-12-05T16:35:01;4.10;99.90
49032;DHT22;63443;48.366;10.876;2022-12-05T16:37:28;4.10;99.90
49032;DHT22;63443;48.366;10.876;2022-12-05T16:39:54;4.00;99.90
49032;DHT22;63443;48.366;10.876;2022-12-05T16:42:28;4.10;99.90
49032;DHT22;63443;48.366;10.876;2022-12-05T16:45:00;4.00;99.90
49032;DHT22;63443;48.366;10.876;2022-12-05T16:50:32;4.00;99.90
49032;DHT22;63443;48.366;10.876;2022-12-05T16:53:01;4.00;99.90
49032;DHT22;63443;48.366;10.876;2022-12-05T16:55:26;4.00;99.90
49032;DHT22;63443;48.366;10.876;2022-12-05T16:57:52;3.90;99.90
49032;DHT22;63443;48.366;10.876;2022-12-05T17:00:18;3.90;99.90
49032;DHT22;63443;48.366;10.876;2022-12-05T17:02:45;3.90;99.90
49032;DHT22;63443;48.366;10.876;2022-12-05T17:05:14;3.90;99.90
49032;DHT22;63443;48.366;10.876;2022-12-05T17:07:40;3.80;99.90
49032;DHT22;63443;48.366;10.876;2022-12-05T17:10:06;3.90;99.90
49032;DHT22;63443;48.366;10.876;2022-12-05T17:12:32;3.80;99.90
49032;DHT22;63443;48.366;10.876;2022-12-05T17:14:57;3.80;99.90
49032;DHT22;63443;48.366;10.876;2022-12-05T17:17:23;3.90;99.90
49032;DHT22;63443;48.366;10.876;2022-12-05T17:19:49;3.90;99.90
49032;DHT22;63443;48.366;10.876;2022-12-05T17:22:14;3.90;99.90
49032;DHT22;63443;48.366;10.876;2022-12-05T17:24:41;3.90;99.90
49032;DHT22;63443;48.366;10.876;2022-12-05T17:27:12;3.80;99.90
49032;DHT22;63443;48.366;10.876;2022-12-05T17:29:38;3.80;99.90
49032;DHT22;63443;48.366;10.876;2022-12-05T17:32:04;3.70;99.90
49032;DHT22;63443;48.366;10.876;2022-12-05T17:34:29;3.60;99.90
49032;DHT22;63443;48.366;10.876;2022-12-05T17:36:55;3.50;99.90
49032;DHT22;63443;48.366;10.876;2022-12-05T17:39:21;3.40;99.90
49032;DHT22;63443;48.366;10.876;2022-12-05T17:41:46;3.50;99.90
49032;DHT22;63443;48.366;10.876;2022-12-05T17:44:13;3.50;99.90
49032;DHT22;63443;48.366;10.876;2022-12-05T17:46:41;3.50;99.90
49032;DHT22;63443;48.366;10.876;2022-12-05T17:49:14;3.50;99.90
49032;DHT22;63443;48.366;10.876;2022-12-05T17:51:41;3.40;99.90
49032;DHT22;63443;48.366;10.876;2022-12-05T17:54:07;3.30;99.90
49032;DHT22;63443;48.366;10.876;2022-12-05T17:56:32;3.30;99.90
49032;DHT22;63443;48.366;10.876;2022-12-05T17:58:58;3.30;99.90
49032;DHT22;63443;48.366;10.876;2022-12-05T18:01:23;3.20;99.90
49032;DHT22;63443;48.366;10.876;2022-12-05T18:03:49;3.10;99.90
49032;DHT22;63443;48.366;10.876;2022-12-05T18:06:16;3.20;99.90
49032;DHT22;63443;48.366;10.876;2022-12-05T18:08:42;3.10;99.90
49032;DHT22;63443;48.366;10.876;2022-12-05T18:11:13;3.10;99.90